Sherman, Wisconsin
Current Conditions -  °F | °C
As of 1:15 AM on Saturday 29 Nov 2014 (Local Time) from KPBH Reporting Station
Scattered Clouds Scattered Clouds  
Wind Chill: 16°   Ceiling: Unl
Heat Index: 16°   Visibility: 10mi
Dew Point: 14°   Wind: 0mph
Humidity: 91%   Direction: NA
Pressure: 29.7"   Gusts: NA
Location:  45.9599°N, 90.2362°W
Report Text: KPBH 290715Z AUTO 00000KT 10SM SCT009 SCT038 M09/M10 A2970 RMK AO2 T10881100
Loading
Personal Weather Stations






























Interactive Weather Map New forecast layout! Learn more

10-Day Weather Forecast

Advertisements
Track Severe Weather on mobile